createdAt,value
2017-01-07T00:00:59.572Z,1
2017-01-07T00:02:13.177Z,1
2017-01-07T00:03:26.673Z,1
2017-01-07T00:04:40.083Z,1
2017-01-07T00:05:53.563Z,1
2017-01-07T00:07:06.998Z,1
2017-01-07T00:08:21.959Z,1
2017-01-07T00:09:35.582Z,1
2017-01-07T00:10:49.014Z,1
2017-01-07T00:12:02.910Z,1
2017-01-07T00:13:16.547Z,1
2017-01-07T00:14:30.335Z,1
2017-01-07T00:15:43.842Z,1
2017-01-07T00:17:03.571Z,1
2017-01-07T00:18:16.973Z,1
2017-01-07T00:19:30.501Z,1
2017-01-07T00:20:44.494Z,1
2017-01-07T00:21:58.127Z,1
2017-01-07T00:23:13.727Z,1
2017-01-07T00:24:27.292Z,1
2017-01-07T00:25:41.189Z,1
2017-01-07T00:26:54.660Z,1
2017-01-07T00:28:08.090Z,1
2017-01-07T00:29:21.653Z,1
2017-01-07T00:30:35.072Z,1
2017-01-07T00:31:48.525Z,1
2017-01-07T00:33:01.970Z,1
2017-01-07T00:34:15.430Z,1
2017-01-07T00:35:29.009Z,1
2017-01-07T00:36:42.430Z,1
2017-01-07T00:37:55.877Z,1
2017-01-07T00:39:09.334Z,1
2017-01-07T00:40:22.848Z,1
2017-01-07T00:41:36.494Z,1
2017-01-07T00:42:50.068Z,1
2017-01-07T00:44:03.569Z,1
2017-01-07T00:45:17.070Z,1
2017-01-07T00:46:30.487Z,1
2017-01-07T00:47:43.960Z,1
2017-01-07T00:48:57.392Z,1
2017-01-07T00:50:10.960Z,1
2017-01-07T00:51:24.577Z,1
2017-01-07T00:52:38.022Z,1
2017-01-07T00:53:51.435Z,1
2017-01-07T00:55:04.848Z,1
2017-01-07T00:56:18.359Z,1
2017-01-07T00:57:31.823Z,1
2017-01-07T00:58:45.285Z,1
2017-01-07T00:59:58.727Z,1
2017-01-07T01:01:12.272Z,1
2017-01-07T01:02:26.154Z,1
2017-01-07T01:03:39.593Z,1
2017-01-07T01:04:52.998Z,1
2017-01-07T01:06:06.545Z,1
2017-01-07T01:07:20.095Z,1
2017-01-07T01:08:33.477Z,1
2017-01-07T01:09:46.924Z,1
2017-01-07T01:11:00.363Z,1
2017-01-07T01:12:14.167Z,1
2017-01-07T01:13:27.599Z,1
2017-01-07T01:14:41.032Z,1
2017-01-07T01:15:54.439Z,1
2017-01-07T01:17:08.001Z,1
2017-01-07T01:18:22.026Z,1
2017-01-07T01:19:35.867Z,1
2017-01-07T01:20:49.901Z,1
2017-01-07T01:22:03.314Z,1
2017-01-07T01:23:16.884Z,1
2017-01-07T01:24:30.391Z,1
2017-01-07T01:25:43.825Z,1
2017-01-07T01:26:57.269Z,1
2017-01-07T01:28:10.769Z,1
2017-01-07T01:29:24.194Z,1
2017-01-07T01:30:37.597Z,1
2017-01-07T01:31:51.183Z,1
2017-01-07T01:33:04.716Z,1
2017-01-07T01:34:18.559Z,1
2017-01-07T01:35:32.020Z,1
2017-01-07T01:36:45.470Z,1
2017-01-07T01:37:59.060Z,1
2017-01-07T01:39:14.779Z,1
2017-01-07T01:40:28.371Z,1
2017-01-07T01:41:41.822Z,1
2017-01-07T01:42:55.280Z,1
2017-01-07T01:44:09.179Z,1
2017-01-07T01:45:22.709Z,1
2017-01-07T01:46:36.113Z,1
2017-01-07T01:47:49.553Z,1
2017-01-07T01:49:03.052Z,1
2017-01-07T01:50:16.479Z,1
2017-01-07T01:51:29.894Z,1
2017-01-07T01:52:43.364Z,1
2017-01-07T01:53:56.899Z,1
2017-01-07T01:55:10.396Z,1
2017-01-07T01:56:23.830Z,1
2017-01-07T01:57:37.270Z,1
2017-01-07T01:58:50.706Z,1
2017-01-07T02:00:04.333Z,1
2017-01-07T02:01:17.786Z,1
2017-01-07T02:02:31.264Z,1
2017-01-07T02:03:44.666Z,1
2017-01-07T02:04:58.223Z,1
2017-01-07T02:06:12.073Z,1
2017-01-07T02:07:25.622Z,1
2017-01-07T02:08:39.140Z,1
2017-01-07T02:09:52.621Z,1
2017-01-07T02:11:06.240Z,1
2017-01-07T02:12:19.685Z,1
2017-01-07T02:13:33.106Z,1
2017-01-07T02:14:46.869Z,1
2017-01-07T02:16:00.487Z,1
2017-01-07T02:17:13.901Z,1
2017-01-07T02:18:27.357Z,1
2017-01-07T02:19:40.781Z,1
2017-01-07T02:20:54.303Z,1
2017-01-07T02:22:08.262Z,1
2017-01-07T02:23:21.766Z,1
2017-01-07T02:24:35.244Z,1
2017-01-07T02:25:48.650Z,1
2017-01-07T02:27:02.150Z,1
2017-01-07T02:28:15.716Z,1
2017-01-07T02:29:29.316Z,1
2017-01-07T02:30:42.723Z,1
2017-01-07T02:31:56.235Z,1
2017-01-07T02:33:09.658Z,1
2017-01-07T02:34:24.112Z,1
2017-01-07T02:35:37.526Z,1
2017-01-07T02:36:51.105Z,1
2017-01-07T02:38:04.533Z,1
2017-01-07T02:39:17.917Z,1
2017-01-07T02:40:31.481Z,0
2017-01-07T02:41:44.944Z,0
2017-01-07T02:42:58.566Z,0
2017-01-07T02:44:12.064Z,0
2017-01-07T02:45:25.490Z,0
2017-01-07T02:46:38.909Z,0
2017-01-07T02:47:52.893Z,0
2017-01-07T02:49:06.294Z,0
2017-01-07T02:50:19.850Z,0
2017-01-07T02:51:33.259Z,0
2017-01-07T02:52:47.976Z,0
2017-01-07T02:54:01.386Z,0
2017-01-07T02:55:16.992Z,0
2017-01-07T02:56:30.527Z,0
2017-01-07T02:57:43.933Z,0
2017-01-07T02:58:57.419Z,0
2017-01-07T03:00:11.251Z,0
2017-01-07T03:01:24.660Z,0
2017-01-07T03:02:38.181Z,0
2017-01-07T03:03:51.663Z,1
2017-01-07T03:05:05.238Z,0
2017-01-07T03:06:18.691Z,0
2017-01-07T03:07:32.114Z,0
2017-01-07T03:08:45.595Z,0
2017-01-07T03:09:59.050Z,0
2017-01-07T03:11:12.498Z,0
2017-01-07T03:12:25.920Z,0
2017-01-07T03:13:39.341Z,0
2017-01-07T03:14:52.837Z,0
2017-01-07T03:16:06.239Z,0
2017-01-07T03:17:19.746Z,0
2017-01-07T03:18:33.428Z,0
2017-01-07T03:19:46.981Z,0
2017-01-07T03:21:00.377Z,0
2017-01-07T03:22:13.804Z,0
2017-01-07T03:23:27.181Z,0
2017-01-07T03:24:40.708Z,0
2017-01-07T03:25:54.124Z,0
2017-01-07T03:27:07.528Z,0
2017-01-07T03:28:20.948Z,0
2017-01-07T03:29:34.372Z,0
2017-01-07T03:30:47.850Z,0
2017-01-07T03:32:01.241Z,0
2017-01-07T03:33:14.664Z,0
2017-01-07T03:34:28.106Z,0
2017-01-07T03:35:41.631Z,0
2017-01-07T03:36:55.050Z,0
2017-01-07T03:38:09.349Z,0
2017-01-07T03:39:23.228Z,0
2017-01-07T03:40:36.926Z,0
2017-01-07T03:41:50.515Z,0
2017-01-07T03:43:03.961Z,0
2017-01-07T03:44:17.447Z,0
2017-01-07T03:45:30.827Z,0
2017-01-07T03:46:44.896Z,0
2017-01-07T03:47:58.480Z,0
2017-01-07T03:49:11.980Z,1
2017-01-07T03:50:25.862Z,1
2017-01-07T03:51:39.424Z,1
2017-01-07T03:52:52.836Z,1
2017-01-07T03:54:06.672Z,1
2017-01-07T03:55:20.087Z,1
2017-01-07T03:56:33.752Z,1
2017-01-07T03:57:47.263Z,1
2017-01-07T03:59:00.687Z,1
2017-01-07T04:00:14.153Z,1
2017-01-07T04:01:27.693Z,1
2017-01-07T04:02:41.388Z,1
2017-01-07T04:03:54.855Z,1
2017-01-07T04:05:08.306Z,1
2017-01-07T04:06:21.744Z,1
2017-01-07T04:07:35.219Z,1
2017-01-07T04:08:48.704Z,1
2017-01-07T04:10:02.234Z,1
2017-01-07T04:11:18.027Z,1
2017-01-07T04:12:31.494Z,1
2017-01-07T04:13:44.944Z,1
2017-01-07T04:14:58.446Z,1
2017-01-07T04:16:11.881Z,1
2017-01-07T04:17:25.366Z,1
2017-01-07T04:18:38.912Z,1
2017-01-07T04:19:52.337Z,1
2017-01-07T04:21:05.751Z,1
2017-01-07T04:22:19.288Z,1
2017-01-07T04:23:32.870Z,1
2017-01-07T04:24:46.268Z,1
2017-01-07T04:25:59.849Z,1
2017-01-07T04:27:13.298Z,1
2017-01-07T04:28:26.848Z,1
2017-01-07T04:29:40.291Z,1
2017-01-07T04:30:53.760Z,1
2017-01-07T04:32:07.471Z,1
2017-01-07T04:33:21.056Z,2
2017-01-07T04:34:34.562Z,2
2017-01-07T04:35:47.998Z,2
2017-01-07T04:37:01.406Z,2
2017-01-07T04:38:14.887Z,2
2017-01-07T04:39:28.556Z,2
2017-01-07T04:40:42.403Z,2
2017-01-07T04:41:55.843Z,2
2017-01-07T04:43:09.331Z,2
2017-01-07T04:44:22.811Z,2
2017-01-07T04:45:36.680Z,2
2017-01-07T04:46:50.124Z,2
2017-01-07T04:48:03.534Z,2
2017-01-07T04:49:16.966Z,2
2017-01-07T04:50:30.487Z,2
2017-01-07T04:51:43.968Z,2
2017-01-07T04:52:57.493Z,2
2017-01-07T04:54:11.541Z,2
2017-01-07T04:55:25.707Z,2
2017-01-07T04:56:39.591Z,2
2017-01-07T04:57:54.691Z,2
2017-01-07T04:59:09.593Z,2
2017-01-07T05:00:24.178Z,2
2017-01-07T05:01:37.626Z,2
2017-01-07T05:02:53.267Z,2
2017-01-07T05:04:10.366Z,2
2017-01-07T05:05:25.373Z,2
2017-01-07T05:06:40.381Z,2
2017-01-07T05:07:54.718Z,2
2017-01-07T05:09:09.364Z,2
2017-01-07T05:10:22.811Z,2
2017-01-07T05:11:36.223Z,2
2017-01-07T05:12:50.138Z,2
2017-01-07T05:14:03.627Z,2
2017-01-07T05:15:17.050Z,2
2017-01-07T05:16:30.695Z,2
2017-01-07T05:17:44.101Z,2
2017-01-07T05:18:57.489Z,2
2017-01-07T05:20:10.902Z,2
2017-01-07T05:21:24.841Z,2
2017-01-07T05:22:38.594Z,2
2017-01-07T05:23:51.987Z,2
2017-01-07T05:25:05.412Z,2
2017-01-07T05:26:18.862Z,2
2017-01-07T05:27:34.466Z,2
2017-01-07T05:28:47.896Z,2
2017-01-07T05:30:01.316Z,2
2017-01-07T05:31:14.744Z,2
2017-01-07T05:32:28.270Z,2
2017-01-07T05:33:41.700Z,2
2017-01-07T05:34:55.127Z,2
2017-01-07T05:36:08.573Z,2
2017-01-07T05:37:22.107Z,2
2017-01-07T05:38:35.730Z,2
2017-01-07T05:39:49.154Z,2
2017-01-07T05:41:02.579Z,2
2017-01-07T05:42:16.468Z,2
2017-01-07T05:43:29.950Z,3
2017-01-07T05:44:43.492Z,3
2017-01-07T05:45:56.930Z,3
2017-01-07T05:47:10.391Z,2
2017-01-07T05:48:23.931Z,2
2017-01-07T05:49:37.363Z,2
2017-01-07T05:50:50.921Z,2
2017-01-07T05:52:04.339Z,2
2017-01-07T05:53:17.996Z,3
2017-01-07T05:54:31.465Z,3
2017-01-07T05:55:44.914Z,3
2017-01-07T05:56:59.020Z,2
2017-01-07T05:58:12.561Z,3
2017-01-07T05:59:26.077Z,3
2017-01-07T06:00:39.516Z,3
2017-01-07T06:01:53.365Z,3
2017-01-07T06:03:06.780Z,3
2017-01-07T06:04:21.497Z,3
2017-01-07T06:05:35.431Z,3
2017-01-07T06:06:49.022Z,3
2017-01-07T06:08:02.501Z,3
2017-01-07T06:09:16.035Z,3
2017-01-07T06:10:29.482Z,3
2017-01-07T06:11:42.923Z,3
2017-01-07T06:12:56.337Z,3
2017-01-07T06:14:11.052Z,3
2017-01-07T06:15:24.495Z,3
2017-01-07T06:16:37.900Z,3
2017-01-07T06:17:51.339Z,3
2017-01-07T06:19:04.790Z,3
2017-01-07T06:20:18.400Z,3
2017-01-07T06:21:31.821Z,3
2017-01-07T06:22:45.230Z,3
2017-01-07T06:23:58.624Z,3
2017-01-07T06:25:12.405Z,3
2017-01-07T06:26:25.962Z,3
2017-01-07T06:27:39.652Z,2
2017-01-07T06:28:53.054Z,3
2017-01-07T06:30:06.555Z,3
2017-01-07T06:31:19.960Z,3
2017-01-07T06:32:33.418Z,3
2017-01-07T06:33:46.831Z,3
2017-01-07T06:35:00.266Z,3
2017-01-07T06:36:13.931Z,3
2017-01-07T06:37:27.351Z,3
2017-01-07T06:38:40.764Z,3
2017-01-07T06:39:54.173Z,3
2017-01-07T06:41:07.660Z,3
2017-01-07T06:42:40.323Z,3
2017-01-07T06:43:55.935Z,3
2017-01-07T06:45:09.531Z,3
2017-01-07T06:46:23.154Z,3
2017-01-07T06:47:36.583Z,3
2017-01-07T06:48:50.052Z,3
2017-01-07T06:50:03.494Z,3
2017-01-07T06:51:17.039Z,3
2017-01-07T06:52:31.710Z,3
2017-01-07T06:53:45.721Z,3
2017-01-07T06:55:00.407Z,3
2017-01-07T06:56:13.927Z,3
2017-01-07T06:57:27.418Z,3
2017-01-07T06:58:40.832Z,3
2017-01-07T06:59:54.362Z,3
2017-01-07T07:01:07.953Z,3
2017-01-07T07:02:21.583Z,3
2017-01-07T07:03:35.018Z,3
2017-01-07T07:04:48.528Z,3
2017-01-07T07:06:02.026Z,3
2017-01-07T07:07:15.594Z,3
2017-01-07T07:08:29.032Z,3
2017-01-07T07:09:42.634Z,3
2017-01-07T07:10:56.108Z,3
2017-01-07T07:12:10.920Z,3
2017-01-07T07:13:24.357Z,3
2017-01-07T07:14:37.987Z,3
2017-01-07T07:15:51.474Z,3
2017-01-07T07:17:04.997Z,3
2017-01-07T07:18:18.571Z,3
2017-01-07T07:19:32.161Z,3
2017-01-07T07:20:45.618Z,3
2017-01-07T07:21:59.088Z,3
2017-01-07T07:23:12.643Z,3
2017-01-07T07:24:26.045Z,3
2017-01-07T07:25:39.613Z,3
2017-01-07T07:26:53.516Z,3
2017-01-07T07:28:08.285Z,3
2017-01-07T07:29:21.782Z,4
2017-01-07T07:30:35.226Z,4
2017-01-07T07:31:49.211Z,4
2017-01-07T07:33:03.205Z,4
2017-01-07T07:34:16.981Z,4
2017-01-07T07:35:30.872Z,4
2017-01-07T07:36:44.356Z,4
2017-01-07T07:37:57.907Z,4
2017-01-07T07:39:11.483Z,4
2017-01-07T07:40:25.003Z,4
2017-01-07T07:41:38.478Z,4
2017-01-07T07:42:51.955Z,4
2017-01-07T07:44:05.411Z,4
2017-01-07T07:45:19.204Z,4
2017-01-07T07:46:33.485Z,4
2017-01-07T07:47:47.041Z,4
2017-01-07T07:49:00.983Z,4
2017-01-07T07:50:14.900Z,4
2017-01-07T07:51:28.538Z,4
2017-01-07T07:52:42.001Z,4
2017-01-07T07:53:55.527Z,4
2017-01-07T07:55:10.406Z,4
2017-01-07T07:56:23.909Z,4
2017-01-07T07:57:37.561Z,4
2017-01-07T07:58:51.184Z,4
2017-01-07T08:00:07.305Z,4
2017-01-07T08:01:20.878Z,4
2017-01-07T08:02:34.408Z,4
2017-01-07T08:03:47.862Z,4
2017-01-07T08:05:01.491Z,4
2017-01-07T08:06:15.062Z,4
2017-01-07T08:07:28.534Z,4
2017-01-07T08:08:41.974Z,4
2017-01-07T08:09:55.786Z,4
2017-01-07T08:11:10.620Z,4
2017-01-07T08:12:24.132Z,4
2017-01-07T08:13:37.718Z,4
2017-01-07T08:14:51.263Z,4
2017-01-07T08:16:04.810Z,4
2017-01-07T08:17:18.389Z,4
2017-01-07T08:18:31.859Z,4
2017-01-07T08:19:45.385Z,4
2017-01-07T08:20:58.838Z,4
2017-01-07T08:22:12.384Z,4
2017-01-07T08:23:25.917Z,4
2017-01-07T08:24:39.417Z,4
2017-01-07T08:25:52.909Z,4
2017-01-07T08:27:06.578Z,5
2017-01-07T08:28:20.164Z,5
2017-01-07T08:29:33.915Z,5
2017-01-07T08:30:47.354Z,5
2017-01-07T08:32:01.050Z,5
2017-01-07T08:33:14.647Z,5
2017-01-07T08:34:28.400Z,5
2017-01-07T08:35:42.266Z,5
2017-01-07T08:36:56.344Z,5
2017-01-07T08:38:10.444Z,5
2017-01-07T08:39:24.763Z,5
2017-01-07T08:40:38.276Z,5
2017-01-07T08:41:52.549Z,5
2017-01-07T08:43:06.188Z,5
2017-01-07T08:44:19.681Z,5
2017-01-07T08:45:33.269Z,5
2017-01-07T08:46:47.147Z,5
2017-01-07T08:48:00.762Z,5
2017-01-07T08:49:14.288Z,5
2017-01-07T08:50:27.736Z,5
2017-01-07T08:51:41.175Z,5
2017-01-07T08:52:54.639Z,5
2017-01-07T08:54:08.169Z,5
2017-01-07T08:55:21.650Z,5
2017-01-07T08:56:35.106Z,5
2017-01-07T09:01:37.466Z,5
2017-01-07T09:02:50.906Z,5
2017-01-07T09:04:04.323Z,5
2017-01-07T09:05:17.763Z,5
2017-01-07T09:06:31.805Z,5
2017-01-07T09:07:45.389Z,5
2017-01-07T09:08:58.830Z,5
2017-01-07T09:10:12.245Z,5
2017-01-07T09:11:25.780Z,5
2017-01-07T09:12:39.227Z,5
2017-01-07T09:13:52.665Z,5
2017-01-07T09:15:06.125Z,5
2017-01-07T09:16:19.560Z,5
2017-01-07T09:17:33.113Z,5
2017-01-07T09:18:48.714Z,5
2017-01-07T09:20:02.177Z,5
2017-01-07T09:21:15.674Z,5
2017-01-07T09:22:29.208Z,5
2017-01-07T09:23:42.714Z,5
2017-01-07T09:24:56.150Z,5
2017-01-07T09:26:09.729Z,5
2017-01-07T09:27:23.278Z,5
2017-01-07T09:28:36.661Z,5
2017-01-07T09:29:50.103Z,5
2017-01-07T09:31:03.524Z,5
2017-01-07T09:32:16.954Z,5
2017-01-07T09:33:30.572Z,5
2017-01-07T09:34:43.977Z,5
2017-01-07T09:35:57.421Z,5
2017-01-07T09:37:10.862Z,5
2017-01-07T09:38:24.532Z,5
2017-01-07T09:39:38.426Z,5
2017-01-07T09:40:51.907Z,5
2017-01-07T09:42:05.358Z,5
2017-01-07T09:43:18.859Z,5
2017-01-07T09:44:32.733Z,5
2017-01-07T09:45:46.198Z,5
2017-01-07T09:46:59.700Z,5
2017-01-07T09:48:13.217Z,5
2017-01-07T09:49:26.919Z,5
2017-01-07T09:50:40.358Z,5
2017-01-07T09:51:53.828Z,5
2017-01-07T09:53:07.632Z,6
2017-01-07T09:54:21.361Z,6
2017-01-07T09:55:34.809Z,6
2017-01-07T09:56:48.227Z,6
2017-01-07T09:58:01.639Z,6
2017-01-07T09:59:15.181Z,6
2017-01-07T10:00:28.790Z,6
2017-01-07T10:01:42.207Z,6
2017-01-07T10:02:56.864Z,6
2017-01-07T10:04:10.391Z,6
2017-01-07T10:05:23.956Z,6
2017-01-07T10:06:37.657Z,6
2017-01-07T10:07:52.105Z,6
2017-01-07T10:09:06.455Z,6
2017-01-07T10:10:20.050Z,6
2017-01-07T10:11:34.112Z,6
2017-01-07T10:12:47.971Z,6
2017-01-07T10:14:01.455Z,6
2017-01-07T10:15:15.017Z,6
2017-01-07T10:16:28.519Z,6
2017-01-07T10:17:42.049Z,6
2017-01-07T10:18:55.531Z,6
2017-01-07T10:20:08.961Z,6
2017-01-07T10:21:22.519Z,6
2017-01-07T10:22:35.984Z,6
2017-01-07T10:23:49.469Z,6
2017-01-07T10:25:02.911Z,6
2017-01-07T10:26:16.469Z,6
2017-01-07T10:27:30.177Z,6
2017-01-07T10:28:44.445Z,6
2017-01-07T10:29:57.880Z,6
2017-01-07T10:31:11.395Z,6
2017-01-07T10:32:24.843Z,6
2017-01-07T10:33:40.204Z,6
2017-01-07T10:34:55.822Z,6
2017-01-07T10:36:09.322Z,6
2017-01-07T10:37:22.866Z,6
2017-01-07T10:38:36.348Z,6
2017-01-07T10:39:49.786Z,6
2017-01-07T10:41:03.261Z,6
2017-01-07T10:42:16.780Z,6
2017-01-07T10:43:30.208Z,6
2017-01-07T10:44:43.625Z,6
2017-01-07T10:45:57.136Z,6
2017-01-07T10:47:10.678Z,6
2017-01-07T10:48:24.855Z,6
2017-01-07T10:49:39.415Z,6
2017-01-07T10:50:53.423Z,6
2017-01-07T10:52:06.879Z,6
2017-01-07T10:53:20.479Z,6
2017-01-07T10:54:33.891Z,6
2017-01-07T10:55:47.327Z,7
2017-01-07T10:57:00.801Z,7
2017-01-07T10:58:14.398Z,7
2017-01-07T10:59:27.816Z,7
2017-01-07T11:00:41.255Z,7
2017-01-07T11:01:54.692Z,7
2017-01-07T11:03:08.218Z,7
2017-01-07T11:04:22.450Z,7
2017-01-07T11:05:35.927Z,7
2017-01-07T11:06:49.367Z,7
2017-01-07T11:08:02.828Z,7
2017-01-07T11:09:16.512Z,7
2017-01-07T11:10:29.962Z,7
2017-01-07T11:11:43.420Z,7
2017-01-07T11:12:56.896Z,7
2017-01-07T11:14:10.432Z,7
2017-01-07T11:15:23.880Z,7
2017-01-07T11:16:37.312Z,7
2017-01-07T11:17:51.342Z,7
2017-01-07T11:19:06.367Z,7
2017-01-07T11:20:19.832Z,7
2017-01-07T11:21:33.295Z,7
2017-01-07T11:22:46.788Z,7
2017-01-07T11:24:00.225Z,7
2017-01-07T11:25:13.826Z,7
2017-01-07T11:26:27.257Z,7
2017-01-07T11:27:40.758Z,7
2017-01-07T11:28:54.263Z,7
2017-01-07T11:30:07.778Z,7
2017-01-07T11:31:21.258Z,7
2017-01-07T11:32:34.704Z,7
2017-01-07T11:33:48.113Z,7
2017-01-07T11:35:01.837Z,7
2017-01-07T11:36:15.319Z,7
2017-01-07T11:37:29.238Z,7
2017-01-07T11:38:43.133Z,7
2017-01-07T11:39:57.122Z,7
2017-01-07T11:41:10.642Z,7
2017-01-07T11:42:24.103Z,7
2017-01-07T11:43:37.578Z,7
2017-01-07T11:44:51.055Z,7
2017-01-07T11:46:05.146Z,7
2017-01-07T11:47:18.579Z,7
2017-01-07T11:48:32.444Z,7
2017-01-07T11:49:45.877Z,7
2017-01-07T11:51:02.882Z,7
2017-01-07T11:52:16.448Z,7
2017-01-07T11:53:29.897Z,7
2017-01-07T11:54:43.680Z,7
2017-01-07T11:55:57.219Z,7
2017-01-07T11:57:11.184Z,7
2017-01-07T11:58:24.606Z,7
2017-01-07T11:59:38.146Z,7
2017-01-07T12:00:51.594Z,7
2017-01-07T12:02:06.368Z,7
2017-01-07T12:03:19.878Z,7
2017-01-07T12:04:33.377Z,7
2017-01-07T12:05:46.851Z,7
2017-01-07T12:07:00.457Z,7
2017-01-07T12:08:13.978Z,7
2017-01-07T12:09:27.424Z,7
2017-01-07T12:10:40.942Z,7
2017-01-07T12:11:54.867Z,7
2017-01-07T12:13:08.499Z,7
2017-01-07T12:14:22.215Z,7
2017-01-07T12:15:36.036Z,7
2017-01-07T12:16:49.528Z,7
2017-01-07T12:18:03.087Z,7
2017-01-07T12:19:16.734Z,7
2017-01-07T12:20:30.192Z,7
2017-01-07T12:21:43.650Z,7
2017-01-07T12:22:57.269Z,7
2017-01-07T12:24:11.033Z,7
2017-01-07T12:25:24.679Z,7
2017-01-07T12:26:38.258Z,7
2017-01-07T12:27:51.938Z,7
2017-01-07T12:29:06.760Z,7
2017-01-07T12:30:20.688Z,7
2017-01-07T12:31:34.121Z,7
2017-01-07T12:32:47.562Z,7
2017-01-07T12:34:01.171Z,7
2017-01-07T12:35:14.608Z,7
2017-01-07T12:36:28.008Z,7
2017-01-07T12:37:41.451Z,7
2017-01-07T12:38:55.051Z,7
2017-01-07T12:40:08.575Z,7
2017-01-07T12:41:22.086Z,7
2017-01-07T12:42:35.531Z,7
2017-01-07T12:43:48.998Z,7
2017-01-07T12:45:02.526Z,7
2017-01-07T12:46:15.983Z,7
2017-01-07T12:47:29.498Z,7
2017-01-07T12:48:43.148Z,7
2017-01-07T12:49:56.721Z,7
2017-01-07T12:51:10.209Z,7
2017-01-07T12:52:27.991Z,7
2017-01-07T12:53:42.432Z,7
2017-01-07T12:54:56.001Z,7
2017-01-07T12:56:10.271Z,7
2017-01-07T12:57:23.740Z,7
2017-01-07T12:58:37.609Z,7
2017-01-07T12:59:51.183Z,7
2017-01-07T13:01:04.745Z,7
2017-01-07T13:02:18.260Z,7
2017-01-07T13:03:31.732Z,7
2017-01-07T13:04:45.175Z,7
2017-01-07T13:05:58.812Z,7
2017-01-07T13:07:14.514Z,7
2017-01-07T13:08:28.437Z,7
2017-01-07T13:09:42.394Z,7
2017-01-07T13:10:56.074Z,7
2017-01-07T13:12:10.052Z,7
2017-01-07T13:13:23.621Z,7
2017-01-07T13:14:37.127Z,7
2017-01-07T13:15:50.773Z,7
2017-01-07T13:17:04.201Z,7
2017-01-07T13:18:17.660Z,7
2017-01-07T13:19:31.476Z,7
2017-01-07T13:20:44.960Z,6
2017-01-07T13:21:58.501Z,6
2017-01-07T13:23:11.948Z,6
2017-01-07T13:24:25.422Z,6
2017-01-07T13:25:39.091Z,6
2017-01-07T13:26:53.801Z,6
2017-01-07T13:28:07.383Z,6
2017-01-07T13:29:20.953Z,6
2017-01-07T13:30:34.706Z,6
2017-01-07T13:31:49.508Z,6
2017-01-07T13:33:03.039Z,6
2017-01-07T13:34:16.848Z,6
2017-01-07T13:35:30.466Z,6
2017-01-07T13:36:44.108Z,6
2017-01-07T13:37:58.016Z,6
2017-01-07T13:39:11.485Z,6
2017-01-07T13:40:25.772Z,7
2017-01-07T13:41:39.256Z,6
2017-01-07T13:42:52.843Z,6
2017-01-07T13:44:06.410Z,6
2017-01-07T13:45:20.081Z,6
2017-01-07T13:46:34.298Z,6
2017-01-07T13:47:47.828Z,6
2017-01-07T13:49:01.347Z,6
2017-01-07T13:50:14.844Z,6
2017-01-07T13:51:28.277Z,6
2017-01-07T13:52:42.030Z,6
2017-01-07T13:53:56.777Z,6
2017-01-07T13:55:10.231Z,6
2017-01-07T13:56:23.827Z,7
2017-01-07T13:57:37.335Z,7
2017-01-07T13:58:51.249Z,6
2017-01-07T14:00:04.704Z,7
2017-01-07T14:01:18.192Z,7
2017-01-07T14:02:31.675Z,7
2017-01-07T14:03:46.411Z,7
2017-01-07T14:04:59.955Z,7
2017-01-07T14:06:13.524Z,7
2017-01-07T14:07:26.996Z,7
2017-01-07T14:08:40.463Z,7
2017-01-07T14:09:54.009Z,7
2017-01-07T14:11:07.486Z,7
2017-01-07T14:12:21.278Z,7
2017-01-07T14:13:34.918Z,7
2017-01-07T14:14:48.465Z,7
2017-01-07T14:16:01.946Z,7
2017-01-07T14:17:15.415Z,7
2017-01-07T14:18:28.859Z,7
2017-01-07T14:19:42.669Z,7
2017-01-07T14:20:56.199Z,7
2017-01-07T14:22:09.811Z,7
2017-01-07T14:23:25.512Z,7
2017-01-07T14:24:38.980Z,7
2017-01-07T14:25:53.029Z,7
2017-01-07T14:27:06.598Z,7
2017-01-07T14:28:21.280Z,7
2017-01-07T14:29:34.806Z,7
2017-01-07T14:30:48.850Z,7
2017-01-07T14:32:02.331Z,7
2017-01-07T14:33:15.779Z,7
2017-01-07T14:34:29.718Z,7
2017-01-07T14:35:43.505Z,7
2017-01-07T14:36:56.979Z,7
2017-01-07T14:38:11.635Z,7
2017-01-07T14:39:25.196Z,7
2017-01-07T14:40:38.768Z,7
2017-01-07T14:41:52.354Z,7
2017-01-07T14:43:05.827Z,7
2017-01-07T14:44:19.303Z,7
2017-01-07T14:45:33.353Z,7
2017-01-07T14:46:48.452Z,7
2017-01-07T14:48:01.872Z,7
2017-01-07T14:49:15.392Z,7
2017-01-07T14:50:28.989Z,7
2017-01-07T14:51:42.654Z,7
2017-01-07T14:53:02.836Z,7
2017-01-07T14:54:16.333Z,7
2017-01-07T14:55:29.847Z,7
2017-01-07T14:56:43.571Z,7
2017-01-07T14:57:58.016Z,7
2017-01-07T14:59:12.056Z,7
2017-01-07T15:00:25.632Z,7
2017-01-07T15:01:39.489Z,7
2017-01-07T15:02:53.281Z,7
2017-01-07T15:04:06.845Z,7
2017-01-07T15:05:20.255Z,7
2017-01-07T15:06:33.733Z,7
2017-01-07T15:07:48.050Z,7
2017-01-07T15:09:02.046Z,7
2017-01-07T15:10:15.810Z,7
2017-01-07T15:11:29.309Z,7
2017-01-07T15:12:42.892Z,7
2017-01-07T15:13:56.409Z,7
2017-01-07T15:15:09.992Z,7
2017-01-07T15:16:23.766Z,7
2017-01-07T15:17:37.295Z,7
2017-01-07T15:18:50.913Z,6
2017-01-07T15:20:06.371Z,7
2017-01-07T15:21:20.283Z,7
2017-01-07T15:22:34.192Z,6
2017-01-07T15:23:47.748Z,6
2017-01-07T15:25:01.273Z,7
2017-01-07T15:26:14.720Z,7
2017-01-07T15:27:28.219Z,7
2017-01-07T15:28:41.910Z,7
2017-01-07T15:29:55.586Z,6
2017-01-07T15:31:09.095Z,7
2017-01-07T15:32:22.508Z,6
2017-01-07T15:33:36.055Z,6
2017-01-07T15:34:49.674Z,6
2017-01-07T15:36:03.197Z,6
2017-01-07T15:37:16.666Z,6
2017-01-07T15:38:30.996Z,6
2017-01-07T15:39:46.811Z,6
2017-01-07T15:41:00.741Z,6
2017-01-07T15:42:14.599Z,6
2017-01-07T15:43:28.219Z,6
2017-01-07T15:44:42.187Z,6
2017-01-07T15:45:55.827Z,6
2017-01-07T15:47:09.469Z,6
2017-01-07T15:48:23.041Z,6
2017-01-07T15:49:36.832Z,6
2017-01-07T15:50:50.459Z,6
2017-01-07T15:52:03.936Z,6
2017-01-07T15:53:17.533Z,6
2017-01-07T15:54:31.136Z,6
2017-01-07T15:55:44.811Z,6
2017-01-07T15:56:58.252Z,6
2017-01-07T15:58:12.136Z,6
2017-01-07T15:59:25.633Z,6
2017-01-07T16:00:39.158Z,6
2017-01-07T16:01:52.659Z,6
2017-01-07T16:03:06.120Z,6
2017-01-07T16:04:19.956Z,6
2017-01-07T16:05:33.526Z,6
2017-01-07T16:06:47.102Z,6
2017-01-07T16:08:01.444Z,6
2017-01-07T16:09:15.090Z,6
2017-01-07T16:10:29.895Z,6
2017-01-07T16:11:43.566Z,6
2017-01-07T16:12:57.148Z,6
2017-01-07T16:14:10.739Z,6
2017-01-07T16:15:24.727Z,6
2017-01-07T16:16:38.317Z,6
2017-01-07T16:17:51.930Z,6
2017-01-07T16:19:07.845Z,6
2017-01-07T16:20:22.599Z,6
2017-01-07T16:21:37.067Z,6
2017-01-07T16:22:50.663Z,6
2017-01-07T16:24:04.556Z,6
2017-01-07T16:25:18.032Z,6
2017-01-07T16:26:31.534Z,6
2017-01-07T16:27:45.290Z,6
2017-01-07T16:28:59.131Z,6
2017-01-07T16:30:12.580Z,6
2017-01-07T16:31:26.405Z,6
2017-01-07T16:32:43.327Z,6
2017-01-07T16:33:57.013Z,6
2017-01-07T16:35:10.487Z,6
2017-01-07T16:36:24.025Z,6
2017-01-07T16:37:39.605Z,6
2017-01-07T16:38:53.469Z,6
2017-01-07T16:40:07.346Z,6
2017-01-07T16:41:20.855Z,6
2017-01-07T16:42:34.359Z,6
2017-01-07T16:43:47.840Z,6
2017-01-07T16:45:01.449Z,6
2017-01-07T16:46:15.061Z,6
2017-01-07T16:47:28.658Z,6
2017-01-07T16:48:42.644Z,6
2017-01-07T16:49:56.181Z,6
2017-01-07T16:51:09.810Z,6
2017-01-07T16:52:26.587Z,6
2017-01-07T16:53:40.736Z,6
2017-01-07T16:54:54.218Z,6
2017-01-07T16:56:09.969Z,6
2017-01-07T16:57:23.400Z,6
2017-01-07T16:58:37.526Z,6
2017-01-07T16:59:50.956Z,6
2017-01-07T17:01:04.392Z,6
2017-01-07T17:02:17.792Z,6
2017-01-07T17:03:33.207Z,6
2017-01-07T17:04:46.735Z,6
2017-01-07T17:06:00.279Z,6
2017-01-07T17:07:14.123Z,6
2017-01-07T17:08:27.600Z,6
2017-01-07T17:09:42.444Z,6
2017-01-07T17:10:55.893Z,6
2017-01-07T17:12:09.406Z,6
2017-01-07T17:13:22.865Z,6
2017-01-07T17:14:38.034Z,6
2017-01-07T17:15:51.551Z,6
2017-01-07T17:17:05.701Z,6
2017-01-07T17:18:19.990Z,6
2017-01-07T17:19:34.310Z,6
2017-01-07T17:20:48.264Z,6
2017-01-07T17:22:02.362Z,6
2017-01-07T17:23:16.493Z,6
2017-01-07T17:24:30.007Z,6
2017-01-07T17:25:44.764Z,6
2017-01-07T17:26:58.689Z,6
2017-01-07T17:28:12.231Z,6
2017-01-07T17:29:26.443Z,6
2017-01-07T17:30:40.256Z,6
2017-01-07T17:31:53.950Z,6
2017-01-07T17:33:09.534Z,6
2017-01-07T17:34:30.276Z,6
2017-01-07T17:35:45.256Z,6
2017-01-07T17:36:58.809Z,6
2017-01-07T17:38:12.330Z,6
2017-01-07T17:39:25.941Z,6
2017-01-07T17:40:40.469Z,6
2017-01-07T17:41:54.242Z,6
2017-01-07T17:43:07.739Z,6
2017-01-07T17:44:21.642Z,6
2017-01-07T17:45:35.519Z,6
2017-01-07T17:46:49.087Z,6
2017-01-07T17:48:02.921Z,6
2017-01-07T17:49:16.819Z,6
2017-01-07T17:50:30.408Z,6
2017-01-07T17:51:44.424Z,6
2017-01-07T17:52:58.176Z,6
2017-01-07T17:54:12.446Z,6
2017-01-07T17:55:26.079Z,6
2017-01-07T17:56:41.064Z,6
2017-01-07T17:57:54.690Z,6
2017-01-07T17:59:08.556Z,6
2017-01-07T18:00:22.199Z,6
2017-01-07T18:01:36.590Z,6
2017-01-07T18:02:50.278Z,6
2017-01-07T18:04:04.522Z,6
2017-01-07T18:05:18.032Z,6
2017-01-07T18:06:32.536Z,6
2017-01-07T18:07:48.209Z,6
2017-01-07T18:09:02.431Z,6
2017-01-07T18:10:16.184Z,6
2017-01-07T18:11:29.739Z,6
2017-01-07T18:12:45.652Z,6
2017-01-07T18:13:59.125Z,6
2017-01-07T18:15:12.815Z,6